createdAt,value
2023-04-11T00:00:03.503Z,2.47
2023-04-11T00:02:40.026Z,1.75
2023-04-11T00:05:09.342Z,1.90
2023-04-11T00:07:37.383Z,2.10
2023-04-11T00:10:07.147Z,1.77
2023-04-11T00:12:35.042Z,1.73
2023-04-11T00:15:05.013Z,1.65
2023-04-11T00:17:32.863Z,1.80
2023-04-11T00:20:08.006Z,1.50
2023-04-11T00:22:36.513Z,1.40
2023-04-11T00:25:04.322Z,1.40
2023-04-11T00:27:32.128Z,1.48
2023-04-11T00:30:00.315Z,1.30
2023-04-11T00:32:29.715Z,1.30
2023-04-11T00:34:57.595Z,1.30
2023-04-11T00:37:25.966Z,1.33
2023-04-11T00:39:56.498Z,1.65
2023-04-11T00:42:24.460Z,1.98
2023-04-11T00:44:52.293Z,1.10
2023-04-11T00:47:20.691Z,1.08
2023-04-11T00:49:50.190Z,1.30
2023-04-11T00:52:18.127Z,1.03
2023-04-11T00:54:46.205Z,1.40
2023-04-11T00:57:14.512Z,1.30
2023-04-11T00:59:43.952Z,1.10
2023-04-11T01:02:11.875Z,1.10
2023-04-11T01:04:40.234Z,1.20
2023-04-11T01:07:10.642Z,1.20
2023-04-11T01:12:07.668Z,1.30
2023-04-11T01:14:35.567Z,1.30
2023-04-11T01:17:03.467Z,1.20
2023-04-11T01:19:31.989Z,1.23
2023-04-11T01:22:01.696Z,1.40
2023-04-11T01:24:33.109Z,1.00
2023-04-11T01:27:02.229Z,1.02
2023-04-11T01:29:30.539Z,0.90
2023-04-11T01:31:58.378Z,1.10
2023-04-11T01:34:29.097Z,1.20
2023-04-11T01:36:57.804Z,1.10
2023-04-11T01:39:25.821Z,1.20
2023-04-11T01:41:57.663Z,1.00
2023-04-11T01:44:27.596Z,1.00
2023-04-11T01:49:25.892Z,1.10
2023-04-11T01:51:53.850Z,1.30
2023-04-11T01:54:21.810Z,1.15
2023-04-11T01:56:49.738Z,1.63
2023-04-11T01:59:19.518Z,1.25
2023-04-11T02:01:47.683Z,1.10
2023-04-11T02:04:15.679Z,1.50
2023-04-11T02:06:43.564Z,1.15
2023-04-11T02:09:11.408Z,1.20
2023-04-11T02:11:39.228Z,1.30
2023-04-11T02:14:09.828Z,1.33
2023-04-11T02:16:52.003Z,1.58
2023-04-11T02:19:21.027Z,1.70
2023-04-11T02:21:49.473Z,1.40
2023-04-11T02:24:17.388Z,1.75
2023-04-11T02:26:45.425Z,1.65
2023-04-11T02:29:13.308Z,1.50
2023-04-11T02:31:41.265Z,1.63
2023-04-11T02:34:11.796Z,2.08
2023-04-11T02:36:39.629Z,1.40
2023-04-11T02:39:07.563Z,2.20
2023-04-11T02:41:35.369Z,1.85
2023-04-11T02:44:03.377Z,1.70
2023-04-11T02:46:31.340Z,1.80
2023-04-11T02:49:00.121Z,1.50
2023-04-11T02:51:29.636Z,1.85
2023-04-11T02:53:57.873Z,1.77
2023-04-11T02:56:26.014Z,2.17
2023-04-11T02:58:58.259Z,1.88
2023-04-11T03:01:28.140Z,2.00
2023-04-11T03:03:57.175Z,2.45
2023-04-11T03:06:33.316Z,1.83
2023-04-11T03:11:30.123Z,2.10
2023-04-11T03:13:58.230Z,2.10
2023-04-11T03:16:28.176Z,2.10
2023-04-11T03:18:56.352Z,2.05
2023-04-11T03:21:24.424Z,2.25
2023-04-11T03:23:53.590Z,2.72
2023-04-11T03:26:21.807Z,2.50
2023-04-11T03:28:49.777Z,2.25
2023-04-11T03:33:49.208Z,2.20
2023-04-11T03:36:17.542Z,2.92
2023-04-11T03:38:46.297Z,2.38
2023-04-11T03:41:15.753Z,2.70
2023-04-11T03:43:44.197Z,3.00
2023-04-11T03:46:12.167Z,3.10
2023-04-11T03:48:47.090Z,2.30
2023-04-11T03:51:16.520Z,2.67
2023-04-11T03:53:52.627Z,2.70
2023-04-11T03:56:42.126Z,2.58
2023-04-11T03:59:17.405Z,2.80
2023-04-11T04:04:43.520Z,2.13
2023-04-11T04:07:23.859Z,2.20
2023-04-11T04:09:55.974Z,2.05
2023-04-11T04:12:26.083Z,1.85
2023-04-11T04:15:14.951Z,1.67
2023-04-11T04:17:45.963Z,1.98
2023-04-11T04:20:19.486Z,2.20
2023-04-11T04:22:53.890Z,2.97
2023-04-11T04:25:30.205Z,2.72
2023-04-11T04:28:01.033Z,3.05
2023-04-11T04:30:38.155Z,3.08
2023-04-11T04:33:12.403Z,3.53
2023-04-11T04:35:45.266Z,3.67
2023-04-11T04:38:18.036Z,3.45
2023-04-11T04:40:55.708Z,3.33
2023-04-11T04:43:27.277Z,4.05
2023-04-11T04:46:07.630Z,3.65
2023-04-11T04:48:42.664Z,3.78
2023-04-11T04:51:10.559Z,4.40
2023-04-11T04:53:39.105Z,4.00
2023-04-11T04:56:09.776Z,5.85
2023-04-11T04:58:47.118Z,5.32
2023-04-11T05:01:17.125Z,4.93
2023-04-11T05:06:28.159Z,6.93
2023-04-11T05:08:57.324Z,7.10
2023-04-11T05:11:26.045Z,6.82
2023-04-11T05:13:56.945Z,6.67
2023-04-11T05:16:25.175Z,6.55
2023-04-11T05:18:53.198Z,7.82
2023-04-11T05:21:21.067Z,8.35
2023-04-11T05:23:52.127Z,8.00
2023-04-11T05:26:20.564Z,8.35
2023-04-11T05:28:48.401Z,8.98
2023-04-11T05:31:21.617Z,8.93
2023-04-11T05:33:49.583Z,9.25
2023-04-11T05:36:17.656Z,8.00
2023-04-11T05:38:46.529Z,6.32
2023-04-11T05:41:14.413Z,4.65
2023-04-11T05:43:42.215Z,5.32
2023-04-11T05:46:10.699Z,4.38
2023-04-11T05:48:40.239Z,4.13
2023-04-11T05:51:08.581Z,4.68
2023-04-11T05:53:36.418Z,4.50
2023-04-11T05:56:04.411Z,4.82
2023-04-11T05:58:32.232Z,4.53
2023-04-11T06:01:00.739Z,4.85
2023-04-11T06:03:28.738Z,5.88
2023-04-11T06:05:58.091Z,6.00
2023-04-11T06:08:25.985Z,6.30
2023-04-11T06:10:53.740Z,7.72
2023-04-11T06:13:21.691Z,7.30
2023-04-11T06:15:49.689Z,7.75
2023-04-11T06:18:17.572Z,7.63
2023-04-11T06:20:46.242Z,6.93
2023-04-11T06:23:15.695Z,7.38
2023-04-11T06:25:43.522Z,6.10
2023-04-11T06:28:11.373Z,2.38
2023-04-11T06:30:39.207Z,1.30
2023-04-11T06:33:07.082Z,1.20
2023-04-11T06:35:34.987Z,1.10
2023-04-11T06:38:02.781Z,0.98
2023-04-11T06:40:31.992Z,1.00
2023-04-11T06:43:01.009Z,1.10
2023-04-11T06:45:28.885Z,0.60
2023-04-11T06:47:56.815Z,1.20
2023-04-11T06:50:24.597Z,1.20
2023-04-11T06:52:52.415Z,1.20
2023-04-11T06:55:21.007Z,1.60
2023-04-11T06:57:50.297Z,1.77
2023-04-11T07:00:19.858Z,2.20
2023-04-11T07:02:47.820Z,2.20
2023-04-11T07:05:16.515Z,2.20
2023-04-11T07:07:44.353Z,1.70
2023-04-11T07:10:12.297Z,1.50
2023-04-11T07:12:40.174Z,1.70
2023-04-11T07:15:11.197Z,1.60
2023-04-11T07:17:39.044Z,2.08
2023-04-11T07:20:09.324Z,1.05
2023-04-11T07:25:06.095Z,1.20
2023-04-11T07:27:35.687Z,1.48
2023-04-11T07:30:03.761Z,1.10
2023-04-11T07:32:33.039Z,1.30
2023-04-11T07:35:01.178Z,1.65
2023-04-11T07:37:30.218Z,1.42
2023-04-11T07:39:58.064Z,0.98
2023-04-11T07:42:26.194Z,1.15
2023-04-11T07:44:54.028Z,1.23
2023-04-11T07:47:21.892Z,1.00
2023-04-11T07:49:51.277Z,1.23
2023-04-11T07:52:19.124Z,1.87
2023-04-11T07:54:47.006Z,1.33
2023-04-11T07:57:14.945Z,1.48
2023-04-11T07:59:42.731Z,1.77
2023-04-11T08:02:10.777Z,1.88
2023-04-11T08:04:38.981Z,1.70
2023-04-11T08:07:08.408Z,1.75
2023-04-11T08:09:36.287Z,1.97
2023-04-11T08:12:06.180Z,2.50
2023-04-11T08:14:34.056Z,2.38
2023-04-11T08:17:02.029Z,3.05
2023-04-11T08:19:29.931Z,2.50
2023-04-11T08:21:57.867Z,3.25
2023-04-11T08:24:27.235Z,3.30
2023-04-11T08:26:55.509Z,2.73
2023-04-11T08:29:23.463Z,3.60
2023-04-11T08:31:51.339Z,3.28
2023-04-11T08:34:19.207Z,3.15
2023-04-11T08:36:47.185Z,3.42
2023-04-11T08:39:14.993Z,3.88
2023-04-11T08:41:44.398Z,3.30
2023-04-11T08:44:13.260Z,4.33
2023-04-11T08:46:43.295Z,4.05
2023-04-11T08:49:11.474Z,3.55
2023-04-11T08:51:43.240Z,3.63
2023-04-11T08:54:11.420Z,4.03
2023-04-11T08:56:42.759Z,3.42
2023-04-11T08:59:12.090Z,3.70
2023-04-11T09:01:40.686Z,3.47
2023-04-11T09:04:10.661Z,3.90
2023-04-11T09:06:40.029Z,3.85
2023-04-11T09:09:08.092Z,3.97
2023-04-11T09:11:54.276Z,2.75
2023-04-11T09:14:26.781Z,3.58
2023-04-11T09:16:56.224Z,2.80
2023-04-11T09:19:25.240Z,3.05
2023-04-11T09:21:54.429Z,3.28
2023-04-11T09:24:22.761Z,3.00
2023-04-11T09:26:51.992Z,2.85
2023-04-11T09:29:39.144Z,2.67
2023-04-11T09:32:07.514Z,3.00
2023-04-11T09:34:39.484Z,2.80
2023-04-11T09:37:08.585Z,3.30
2023-04-11T09:39:36.800Z,2.45
2023-04-11T09:42:25.152Z,2.95
2023-04-11T09:44:54.650Z,2.75
2023-04-11T09:47:22.710Z,2.47
2023-04-11T09:49:52.769Z,2.33
2023-04-11T09:52:21.752Z,2.42
2023-04-11T09:54:51.917Z,2.20
2023-04-11T09:57:23.077Z,1.92
2023-04-11T09:59:55.452Z,1.75
2023-04-11T10:02:23.479Z,1.40
2023-04-11T10:04:54.772Z,1.48
2023-04-11T10:07:23.431Z,1.70
2023-04-11T10:09:51.426Z,1.67
2023-04-11T10:12:31.710Z,1.55
2023-04-11T10:17:35.249Z,1.77
2023-04-11T10:20:06.242Z,1.55
2023-04-11T10:22:59.518Z,1.00
2023-04-11T10:25:27.543Z,1.30
2023-04-11T10:28:00.941Z,1.20
2023-04-11T10:31:04.060Z,1.95
2023-04-11T10:33:32.341Z,1.60
2023-04-11T10:36:03.385Z,1.33
2023-04-11T10:38:49.912Z,2.00
2023-04-11T10:41:31.821Z,1.65
2023-04-11T10:44:20.937Z,1.60
2023-04-11T10:46:53.835Z,2.17
2023-04-11T10:49:36.444Z,2.58
2023-04-11T10:52:21.958Z,1.80
2023-04-11T10:54:51.481Z,1.98
2023-04-11T10:57:19.522Z,1.98
2023-04-11T11:00:11.998Z,1.48
2023-04-11T11:02:42.759Z,1.80
2023-04-11T11:05:24.234Z,1.60
2023-04-11T11:07:54.241Z,1.60
2023-04-11T11:10:40.679Z,2.25
2023-04-11T11:13:09.152Z,2.00
2023-04-11T11:15:38.543Z,2.45
2023-04-11T11:18:11.415Z,2.23
2023-04-11T11:20:40.368Z,2.05
2023-04-11T11:23:09.552Z,2.97
2023-04-11T11:25:37.483Z,2.25
2023-04-11T11:28:07.389Z,2.10
2023-04-11T11:30:36.741Z,2.40
2023-04-11T11:33:19.995Z,1.75
2023-04-11T11:35:53.445Z,2.10
2023-04-11T11:38:22.516Z,2.13
2023-04-11T11:40:50.866Z,2.45
2023-04-11T11:43:18.921Z,2.80
2023-04-11T11:45:47.572Z,2.40
2023-04-11T11:48:24.244Z,2.38
2023-04-11T11:50:57.628Z,3.03
2023-04-11T11:53:26.674Z,2.85
2023-04-11T11:55:54.846Z,3.15
2023-04-11T11:58:22.949Z,3.17
2023-04-11T12:00:52.419Z,2.55
2023-04-11T12:03:24.894Z,3.22
2023-04-11T12:05:58.138Z,3.72
2023-04-11T12:08:26.294Z,2.47
2023-04-11T12:10:54.162Z,2.72
2023-04-11T12:13:23.732Z,2.80
2023-04-11T12:15:53.341Z,3.15
2023-04-11T12:18:22.875Z,2.53
2023-04-11T12:20:54.004Z,2.90
2023-04-11T12:23:22.581Z,2.83
2023-04-11T12:25:51.095Z,2.63
2023-04-11T12:28:19.164Z,3.53
2023-04-11T12:30:47.133Z,1.98
2023-04-11T12:33:14.968Z,2.63
2023-04-11T12:35:42.881Z,2.40
2023-04-11T12:38:14.905Z,2.28
2023-04-11T12:40:46.345Z,2.22
2023-04-11T12:43:14.204Z,1.80
2023-04-11T12:45:42.070Z,1.73
2023-04-11T12:48:10.424Z,1.83
2023-04-11T12:50:38.496Z,1.70
2023-04-11T12:53:06.381Z,1.88
2023-04-11T12:55:35.863Z,1.73
2023-04-11T12:58:03.859Z,2.00
2023-04-11T13:00:31.690Z,1.75
2023-04-11T13:02:59.757Z,1.60
2023-04-11T13:05:28.062Z,2.15
2023-04-11T13:07:56.109Z,1.70
2023-04-11T13:10:24.068Z,2.10
2023-04-11T13:12:58.505Z,1.83
2023-04-11T13:15:27.224Z,1.33
2023-04-11T13:17:55.229Z,2.20
2023-04-11T13:20:23.401Z,1.77
2023-04-11T13:22:51.254Z,2.42
2023-04-11T13:25:19.253Z,2.47
2023-04-11T13:27:47.179Z,1.73
2023-04-11T13:30:16.670Z,2.25
2023-04-11T13:32:44.504Z,2.42
2023-04-11T13:35:12.340Z,2.70
2023-04-11T13:37:40.714Z,2.40
2023-04-11T13:40:11.202Z,1.92
2023-04-11T13:42:39.316Z,2.70
2023-04-11T13:45:08.120Z,2.20
2023-04-11T13:47:38.799Z,2.00
2023-04-11T13:50:08.785Z,1.90
2023-04-11T13:52:36.750Z,2.70
2023-04-11T13:55:05.064Z,1.90
2023-04-11T13:57:32.929Z,1.77
2023-04-11T14:00:00.788Z,1.80
2023-04-11T14:02:28.859Z,1.48
2023-04-11T14:04:58.104Z,2.03
2023-04-11T14:07:25.937Z,2.85
2023-04-11T14:09:54.109Z,1.60
2023-04-11T14:12:21.878Z,2.10
2023-04-11T14:14:49.649Z,2.10
2023-04-11T14:17:17.520Z,1.95
2023-04-11T14:19:45.380Z,1.65
2023-04-11T14:22:14.853Z,2.05
2023-04-11T14:24:42.771Z,1.40
2023-04-11T14:27:11.145Z,1.55
2023-04-11T14:29:39.057Z,1.88
2023-04-11T14:32:07.648Z,2.03
2023-04-11T14:34:35.721Z,1.48
2023-04-11T14:37:03.613Z,2.13
2023-04-11T14:39:32.870Z,1.23
2023-04-11T14:42:02.029Z,1.20
2023-04-11T14:44:29.998Z,1.50
2023-04-11T14:46:57.886Z,1.52
2023-04-11T14:49:25.875Z,1.75
2023-04-11T14:51:53.737Z,1.17
2023-04-11T14:54:22.744Z,1.83
2023-04-11T14:56:52.366Z,1.25
2023-04-11T14:59:20.902Z,1.45
2023-04-11T15:01:48.815Z,1.20
2023-04-11T15:04:16.902Z,1.95
2023-04-11T15:06:45.653Z,1.20
2023-04-11T15:09:13.580Z,1.40
2023-04-11T15:11:41.512Z,1.10
2023-04-11T15:14:10.707Z,1.08
2023-04-11T15:16:38.503Z,1.20
2023-04-11T15:19:06.384Z,1.02
2023-04-11T15:21:34.175Z,1.52
2023-04-11T15:24:06.513Z,1.10
2023-04-11T15:26:34.399Z,1.55
2023-04-11T15:29:02.259Z,1.08
2023-04-11T15:31:32.797Z,1.40
2023-04-11T15:34:03.869Z,1.77
2023-04-11T15:36:31.824Z,1.10
2023-04-11T15:39:00.601Z,1.58
2023-04-11T15:41:28.661Z,1.75
2023-04-11T15:43:56.627Z,1.27
2023-04-11T15:46:25.098Z,1.30
2023-04-11T15:48:54.355Z,1.02
2023-04-11T15:51:22.975Z,1.38
2023-04-11T15:53:50.751Z,1.27
2023-04-11T15:56:19.947Z,1.23
2023-04-11T15:58:49.208Z,1.00
2023-04-11T16:01:22.877Z,1.10
2023-04-11T16:03:51.523Z,1.17
2023-04-11T16:06:21.076Z,1.02
2023-04-11T16:08:48.930Z,1.40
2023-04-11T16:11:16.727Z,1.20
2023-04-11T16:13:45.131Z,1.40
2023-04-11T16:16:13.230Z,1.30
2023-04-11T16:18:41.567Z,1.13
2023-04-11T16:21:13.468Z,1.10
2023-04-11T16:23:42.740Z,1.30
2023-04-11T16:26:10.967Z,1.95
2023-04-11T16:28:38.750Z,1.13
2023-04-11T16:31:07.292Z,1.00
2023-04-11T16:33:35.202Z,1.10
2023-04-11T16:36:03.061Z,1.27
2023-04-11T16:38:30.878Z,1.20
2023-04-11T16:41:03.403Z,1.15
2023-04-11T16:43:31.166Z,3.42
2023-04-11T16:45:59.089Z,1.20
2023-04-11T16:48:27.089Z,1.17
2023-04-11T16:50:54.873Z,1.95
2023-04-11T16:53:22.675Z,7.82
2023-04-11T16:55:51.732Z,1.35
2023-04-11T16:58:21.001Z,1.08
2023-04-11T17:00:49.349Z,1.33
2023-04-11T17:03:18.146Z,1.20
2023-04-11T17:05:46.724Z,0.80
2023-04-11T17:08:15.630Z,0.82
2023-04-11T17:10:44.139Z,1.00
2023-04-11T17:13:12.753Z,0.90
2023-04-11T17:15:42.076Z,1.25
2023-04-11T17:18:10.020Z,0.80
2023-04-11T17:20:37.916Z,1.13
2023-04-11T17:23:05.780Z,1.13
2023-04-11T17:25:33.555Z,1.27
2023-04-11T17:28:01.596Z,1.23
2023-04-11T17:30:30.240Z,0.85
2023-04-11T17:32:59.765Z,1.58
2023-04-11T17:35:28.860Z,1.40
2023-04-11T17:37:56.738Z,1.40
2023-04-11T17:40:24.650Z,2.55
2023-04-11T17:42:52.452Z,1.95
2023-04-11T17:45:21.561Z,1.70
2023-04-11T17:47:49.512Z,1.60
2023-04-11T17:50:20.013Z,1.60
2023-04-11T17:52:48.389Z,1.55
2023-04-11T17:55:18.762Z,1.42
2023-04-11T18:00:19.655Z,1.80
2023-04-11T18:02:49.025Z,3.03
2023-04-11T18:05:24.466Z,3.00
2023-04-11T18:07:54.706Z,2.70
2023-04-11T18:10:23.088Z,2.63
2023-04-11T18:12:52.336Z,2.83
2023-04-11T18:15:21.094Z,2.55
2023-04-11T18:17:49.288Z,2.50
2023-04-11T18:20:19.209Z,2.33
2023-04-11T18:22:48.080Z,3.00
2023-04-11T18:25:15.961Z,2.70
2023-04-11T18:27:44.218Z,2.63
2023-04-11T18:30:13.708Z,2.72
2023-04-11T18:32:47.554Z,2.43
2023-04-11T18:35:19.238Z,3.03
2023-04-11T18:37:47.179Z,2.35
2023-04-11T18:40:15.848Z,1.92
2023-04-11T18:42:46.440Z,1.65
2023-04-11T18:45:15.532Z,1.73
2023-04-11T18:47:44.000Z,1.30
2023-04-11T18:50:12.612Z,1.80
2023-04-11T18:52:42.295Z,1.40
2023-04-11T18:55:11.200Z,2.13
2023-04-11T18:57:39.281Z,2.35
2023-04-11T19:00:17.549Z,2.67
2023-04-11T19:02:47.605Z,4.03
2023-04-11T19:05:16.370Z,5.22
2023-04-11T19:07:46.682Z,6.97
2023-04-11T19:10:14.761Z,5.63
2023-04-11T19:12:42.717Z,5.32
2023-04-11T19:15:11.673Z,4.22
2023-04-11T19:17:39.923Z,5.05
2023-04-11T19:20:12.486Z,4.15
2023-04-11T19:22:41.349Z,3.90
2023-04-11T19:25:12.101Z,3.97
2023-04-11T19:27:41.748Z,3.95
2023-04-11T19:30:13.331Z,3.58
2023-04-11T19:32:44.075Z,3.72
2023-04-11T19:35:12.590Z,3.00
2023-04-11T19:37:41.090Z,3.42
2023-04-11T19:40:13.390Z,3.63
2023-04-11T19:42:41.657Z,3.08
2023-04-11T19:45:11.111Z,3.00
2023-04-11T19:47:40.791Z,3.40
2023-04-11T19:50:12.018Z,3.33
2023-04-11T19:52:40.371Z,3.13
2023-04-11T19:55:10.500Z,3.10
2023-04-11T19:57:40.258Z,2.95
2023-04-11T20:00:13.975Z,3.40
2023-04-11T20:02:45.951Z,3.78
2023-04-11T20:05:15.999Z,4.00
2023-04-11T20:07:44.185Z,3.72
2023-04-11T20:10:15.305Z,4.20
2023-04-11T20:12:43.218Z,3.65
2023-04-11T20:15:11.732Z,4.13
2023-04-11T20:17:39.685Z,8.50
2023-04-11T20:20:11.016Z,6.70
2023-04-11T20:22:40.554Z,6.53
2023-04-11T20:25:11.523Z,7.75
2023-04-11T20:27:41.856Z,6.90
2023-04-11T20:30:10.942Z,6.80
2023-04-11T20:32:39.395Z,4.20
2023-04-11T20:35:08.697Z,3.50
2023-04-11T20:37:36.798Z,3.78
2023-04-11T20:40:07.904Z,4.10
2023-04-11T20:42:39.899Z,4.57
2023-04-11T20:45:11.560Z,7.22
2023-04-11T20:47:39.655Z,7.00
2023-04-11T20:50:10.225Z,6.78
2023-04-11T20:52:41.189Z,7.18
2023-04-11T20:55:10.793Z,8.13
2023-04-11T20:57:38.697Z,8.20
2023-04-11T21:00:14.323Z,9.73
2023-04-11T21:02:44.364Z,10.57
2023-04-11T21:07:41.421Z,7.20
2023-04-11T21:10:10.337Z,4.57
2023-04-11T21:12:38.493Z,7.30
2023-04-11T21:15:07.516Z,6.40
2023-04-11T21:17:39.328Z,10.15
2023-04-11T21:20:10.404Z,9.18
2023-04-11T21:22:38.539Z,10.45
2023-04-11T21:25:07.424Z,11.13
2023-04-11T21:27:35.214Z,8.23
2023-04-11T21:30:03.342Z,7.35
2023-04-11T21:32:31.240Z,4.70
2023-04-11T21:35:00.872Z,3.70
2023-04-11T21:37:28.739Z,3.17
2023-04-11T21:39:56.565Z,4.00
2023-04-11T21:42:24.428Z,4.53
2023-04-11T21:44:52.170Z,4.50
2023-04-11T21:47:20.166Z,4.97
2023-04-11T21:49:48.264Z,4.63
2023-04-11T21:52:17.488Z,5.07
2023-04-11T21:54:45.375Z,5.22
2023-04-11T21:57:13.296Z,5.18
2023-04-11T21:59:41.106Z,5.13
2023-04-11T22:02:09.036Z,4.40
2023-04-11T22:04:47.247Z,5.53
2023-04-11T22:07:24.090Z,5.30
2023-04-11T22:09:58.191Z,5.25
2023-04-11T22:12:27.249Z,5.88
2023-04-11T22:14:57.193Z,4.45
2023-04-11T22:17:25.239Z,4.80
2023-04-11T22:19:53.154Z,4.68
2023-04-11T22:22:22.564Z,6.20
2023-04-11T22:24:50.812Z,6.37
2023-04-11T22:27:18.829Z,5.30
2023-04-11T22:29:46.966Z,3.67
2023-04-11T22:32:14.932Z,4.97
2023-04-11T22:34:42.753Z,7.60
2023-04-11T22:37:10.575Z,6.95
2023-04-11T22:39:40.432Z,6.75
2023-04-11T22:42:08.304Z,6.90
2023-04-11T22:44:36.336Z,7.65
2023-04-11T22:47:06.647Z,9.02
2023-04-11T22:49:40.335Z,13.85
2023-04-11T22:52:08.868Z,12.20
2023-04-11T22:54:36.687Z,9.20
2023-04-11T22:57:05.964Z,5.75
2023-04-11T22:59:34.213Z,9.05
2023-04-11T23:02:02.160Z,7.53
2023-04-11T23:04:32.321Z,6.72
2023-04-11T23:09:28.347Z,5.45
2023-04-11T23:11:56.407Z,5.38
2023-04-11T23:14:31.096Z,5.45
2023-04-11T23:16:59.053Z,6.03
2023-04-11T23:19:27.258Z,5.25
2023-04-11T23:21:55.573Z,25.40
2023-04-11T23:24:23.358Z,11.23
2023-04-11T23:26:51.566Z,10.88
2023-04-11T23:29:19.474Z,7.05
2023-04-11T23:31:48.701Z,5.55
2023-04-11T23:34:16.592Z,5.05
2023-04-11T23:36:44.397Z,7.90
2023-04-11T23:39:12.287Z,6.65
2023-04-11T23:41:40.125Z,4.65
2023-04-11T23:44:07.933Z,2.67
2023-04-11T23:46:35.885Z,2.97
2023-04-11T23:49:05.248Z,3.40
2023-04-11T23:51:33.093Z,2.60
2023-04-11T23:54:01.406Z,2.92
2023-04-11T23:56:29.192Z,3.10
2023-04-11T23:58:57.136Z,3.30
